Time;durP1;ratioP1;P1;durP2;ratioP2;P2;SDS_P1;SDS_P2;PMS_P1;PMS_P2;Temp;Humidity;BMP_temperature;BMP_pressure;BME280_temperature;BME280_humidity;BME280_pressure;Samples;Min_cycle;Max_cycle;Signal;HPM_P1;HPM_P2
2021/08/28 00:00:50;;;;;;;7.25;6.60;;;;;;;30.12;64.58;100688.53;5070390;27;70134;-37
2021/08/28 00:03:22;;;;;;;6.75;6.35;;;;;;;30.15;64.35;100694.31;5073718;27;65674;-36
2021/08/28 00:05:53;;;;;;;7.50;6.85;;;;;;;30.12;64.57;100694.75;5073871;27;69160;-37
2021/08/28 00:08:25;;;;;;;8.70;6.88;;;;;;;30.15;64.56;100699.72;5069897;27;65949;-37
2021/08/28 00:10:55;;;;;;;10.80;6.65;;;;;;;30.20;64.82;100708.03;5071926;27;69562;-38
2021/08/28 00:13:26;;;;;;;7.45;6.88;;;;;;;30.19;65.00;100706.34;5071635;27;66227;-38
2021/08/28 00:15:56;;;;;;;8.00;7.30;;;;;;;30.17;65.76;100702.19;5066864;27;69283;-38
2021/08/28 00:18:27;;;;;;;8.95;6.93;;;;;;;30.16;65.67;100685.16;5073873;27;67065;-38
2021/08/28 00:21:00;;;;;;;10.73;8.20;;;;;;;30.28;65.18;100715.91;5070308;28;68490;-38
2021/08/28 00:23:34;;;;;;;7.80;7.18;;;;;;;30.28;65.20;100707.78;5071700;27;65761;-38
2021/08/28 00:26:12;;;;;;;7.70;7.00;;;;;;;30.28;65.99;100705.06;5072920;27;69318;-39
2021/08/28 00:28:43;;;;;;;8.95;7.90;;;;;;;30.33;65.40;100711.69;5070466;27;65842;-39
2021/08/28 00:31:13;;;;;;;12.20;8.68;;;;;;;30.32;66.17;100710.88;5077384;27;69076;-40
2021/08/28 00:33:43;;;;;;;10.00;7.97;;;;;;;30.28;66.20;100701.50;5074441;27;66110;-38
2021/08/28 00:36:15;;;;;;;8.98;7.88;;;;;;;30.41;65.58;100722.25;5072567;27;69326;-39
2021/08/28 00:38:48;;;;;;;18.75;9.25;;;;;;;30.39;65.99;100719.75;5072194;27;66486;-38
2021/08/28 00:41:18;;;;;;;9.27;8.20;;;;;;;30.43;66.42;100723.69;5061394;27;69851;-38
2021/08/28 00:43:48;;;;;;;9.23;8.43;;;;;;;30.42;66.03;100724.75;5074450;27;66277;-40
2021/08/28 00:46:19;;;;;;;9.38;8.57;;;;;;;30.36;66.36;100706.66;5055474;27;69839;-38
2021/08/28 00:48:50;;;;;;;9.38;8.65;;;;;;;30.44;65.82;100724.50;5072436;27;66248;-38
2021/08/28 00:51:20;;;;;;;8.27;7.63;;;;;;;30.46;66.54;100717.00;5069102;28;70251;-38
2021/08/28 00:53:52;;;;;;;8.40;7.70;;;;;;;30.47;66.66;100718.63;5058444;27;65829;-38
2021/08/28 00:56:23;;;;;;;8.15;7.65;;;;;;;30.50;66.24;100723.59;5075436;27;69976;-39
2021/08/28 00:58:53;;;;;;;8.77;8.18;;;;;;;30.48;66.41;100720.31;5073247;27;65674;-38
2021/08/28 01:01:36;;;;;;;9.30;8.55;;;;;;;30.48;67.02;100723.03;5074654;27;69337;-38
2021/08/28 01:04:19;;;;;;;12.60;9.52;;;;;;;30.53;66.72;100716.94;5076946;27;65388;-37
2021/08/28 01:07:03;;;;;;;21.67;13.07;;;;;;;30.55;67.28;100726.50;5078634;27;70229;-38
2021/08/28 01:10:02;;;;;;;25.88;14.45;;;;;;;30.57;67.51;100729.81;5070793;27;65450;-38
2021/08/28 01:13:14;;;;;;;35.30;16.10;;;;;;;30.57;67.75;100724.41;5061534;27;69938;-38
2021/08/28 01:15:57;;;;;;;23.00;14.43;;;;;;;30.25;68.17;100683.84;5076323;27;66010;-38
2021/08/28 01:18:33;;;;;;;18.77;14.15;;;;;;;30.62;67.65;100732.69;5074488;27;70549;-38
2021/08/28 01:21:35;;;;;;;24.10;14.18;;;;;;;30.59;67.67;100749.38;5078531;27;66174;-39
2021/08/28 01:24:36;;;;;;;17.85;13.10;;;;;;;30.65;68.05;100753.91;5055280;27;70194;-38
2021/08/28 01:27:51;;;;;;;19.60;13.30;;;;;;;30.57;68.66;100750.63;5044609;27;65849;-38
2021/08/28 01:30:29;;;;;;;30.92;17.30;;;;;;;30.55;68.22;100731.06;5066391;27;70201;-38
2021/08/28 01:33:03;;;;;;;39.38;19.08;;;;;;;30.72;68.48;100743.81;5072687;27;64738;-38
2021/08/28 01:36:08;;;;;;;27.80;17.92;;;;;;;30.59;68.85;100726.88;5077320;27;69523;-39
2021/08/28 01:39:11;;;;;;;32.80;18.55;;;;;;;30.79;68.34;100756.50;5074951;27;43562;-38
2021/08/28 01:41:51;;;;;;;33.05;17.92;;;;;;;30.78;68.72;100757.53;5069000;27;70026;-38
2021/08/28 01:44:29;;;;;;;32.72;16.92;;;;;;;30.80;68.65;100755.47;5038820;27;66695;-37
2021/08/28 01:47:08;;;;;;;22.48;16.30;;;;;;;30.84;68.90;100756.66;5069496;27;70947;-38
2021/08/28 01:49:57;;;;;;;23.83;14.65;;;;;;;30.59;68.33;100716.88;5072860;27;65505;-39
2021/08/28 01:52:31;;;;;;;22.27;14.90;;;;;;;30.87;68.68;100772.44;5061710;27;71262;-38
2021/08/28 01:55:09;;;;;;;22.00;14.10;;;;;;;30.82;68.37;100759.59;5064526;27;66178;-38
2021/08/28 01:57:52;;;;;;;19.40;13.90;;;;;;;30.81;68.41;100751.69;5055779;28;69892;-39
2021/08/28 02:00:56;;;;;;;18.13;13.65;;;;;;;30.85;68.18;100766.47;5068445;27;66555;-37
2021/08/28 02:04:09;;;;;;;19.17;13.65;;;;;;;30.58;69.12;100731.44;5046893;27;70150;-37
2021/08/28 02:06:44;;;;;;;;;;;;;;;30.63;68.95;100780.34;5056804;28;65536;-38
2021/08/28 02:09:56;;;;;;;15.50;12.77;;;;;;;30.75;67.81;100782.34;5054656;27;69848;-38
2021/08/28 02:12:45;;;;;;;21.85;13.10;;;;;;;30.81;67.31;100784.19;5071289;27;65603;-37
2021/08/28 02:15:43;;;;;;;15.15;12.90;;;;;;;30.77;67.47;100793.78;5059823;27;69281;-37
2021/08/28 02:18:52;;;;;;;14.93;13.35;;;;;;;30.68;66.78;100795.94;5074048;27;66637;-38
2021/08/28 02:22:07;;;;;;;15.23;13.85;;;;;;;30.75;66.87;100798.59;5060965;28;70223;-38
2021/08/28 02:25:50;;;;;;;14.15;12.82;;;;;;;30.73;67.11;100799.66;5029588;28;66191;-37
2021/08/28 02:28:43;;;;;;;15.13;13.82;;;;;;;30.80;67.02;100802.31;5071667;27;70214;-39
2021/08/28 02:31:29;;;;;;;16.58;14.98;;;;;;;30.82;66.59;100802.09;5054920;28;64865;-37
2021/08/28 02:34:21;;;;;;;16.25;14.25;;;;;;;30.84;66.89;100802.69;5071651;27;70231;-39
2021/08/28 02:37:04;;;;;;;16.67;15.02;;;;;;;30.84;66.30;100811.66;5075616;27;66095;-39
2021/08/28 02:39:46;;;;;;;17.77;14.93;;;;;;;30.56;65.96;100760.63;5057031;28;69750;-38
2021/08/28 02:42:20;;;;;;;15.68;14.48;;;;;;;30.85;66.26;100801.66;5057920;27;66128;-39
2021/08/28 02:44:54;;;;;;;15.40;13.98;;;;;;;30.89;66.39;100808.28;5065272;27;69552;-38
2021/08/28 02:47:31;;;;;;;14.73;13.30;;;;;;;30.91;66.34;100806.19;5054609;27;65921;-37
2021/08/28 02:50:09;;;;;;;16.25;13.13;;;;;;;30.85;66.00;100802.47;5054002;27;68592;-38
2021/08/28 02:53:02;;;;;;;15.95;14.43;;;;;;;30.88;66.29;100812.03;5071643;27;66358;-37
2021/08/28 02:55:48;;;;;;;16.05;14.38;;;;;;;30.63;65.93;100772.22;5082054;27;69836;-37
2021/08/28 02:58:27;;;;;;;20.67;15.30;;;;;;;30.91;66.06;100811.59;5066715;27;66430;-37
2021/08/28 03:01:20;;;;;;;16.33;14.27;;;;;;;30.94;66.77;100805.72;5056095;27;69474;-38
2021/08/28 03:04:00;;;;;;;15.27;13.90;;;;;;;31.01;67.29;100817.34;5049465;28;66262;-38
2021/08/28 03:06:53;;;;;;;14.38;12.93;;;;;;;31.07;66.89;100815.63;5076275;27;70300;-38
2021/08/28 03:09:37;;;;;;;14.70;13.30;;;;;;;30.85;67.50;100774.56;5058817;28;66195;-37
2021/08/28 03:12:16;;;;;;;15.98;11.98;;;;;;;31.14;66.40;100806.34;5071252;27;70479;-36
2021/08/28 03:14:55;;;;;;;14.43;13.23;;;;;;;31.14;66.32;100803.66;5065547;27;65075;-37
2021/08/28 03:17:31;;;;;;;19.03;13.53;;;;;;;31.19;66.43;100799.47;5054076;28;69877;-37
2021/08/28 03:20:09;;;;;;;15.45;13.82;;;;;;;31.00;65.49;100766.91;5045167;27;66065;-37
2021/08/28 03:22:47;;;;;;;18.52;13.13;;;;;;;31.15;65.20;100794.50;5075953;27;70047;-37
2021/08/28 03:25:21;;;;;;;14.88;13.68;;;;;;;31.12;65.02;100794.94;5051363;28;64608;-37
2021/08/28 03:27:54;;;;;;;15.18;13.95;;;;;;;31.05;64.71;100779.81;5089231;27;70143;-37
2021/08/28 03:30:28;;;;;;;14.15;13.25;;;;;;;31.09;65.11;100768.31;5054860;27;65377;-39
2021/08/28 03:33:02;;;;;;;13.57;12.48;;;;;;;31.21;65.07;100786.53;5070457;27;69942;-38
2021/08/28 03:35:35;;;;;;;14.70;13.35;;;;;;;31.25;64.80;100785.00;5057371;27;66399;-37
2021/08/28 03:38:06;;;;;;;15.55;14.27;;;;;;;31.09;64.52;100762.03;5070515;27;69081;-38
2021/08/28 03:40:38;;;;;;;18.52;13.88;;;;;;;31.27;64.60;100788.31;5054290;28;66803;-38
2021/08/28 03:43:12;;;;;;;18.70;14.13;;;;;;;31.29;65.05;100786.22;5065133;27;70397;-38
2021/08/28 03:45:42;;;;;;;18.02;16.33;;;;;;;31.25;65.58;100774.16;5069651;27;67088;-38
2021/08/28 03:48:15;;;;;;;18.67;16.58;;;;;;;31.33;65.34;100787.41;5072480;28;70111;-38
2021/08/28 03:50:46;;;;;;;18.92;17.08;;;;;;;31.31;65.62;100778.69;5072151;27;67220;-37
2021/08/28 03:53:18;;;;;;;22.75;19.17;;;;;;;31.37;65.38;100777.78;5070114;27;70886;-39
2021/08/28 03:55:49;;;;;;;25.27;22.73;;;;;;;31.37;65.74;100788.63;5057239;27;65034;-37
2021/08/28 03:58:22;;;;;;;22.10;20.08;;;;;;;31.41;65.91;100772.78;5059177;27;70565;-39
2021/08/28 04:00:54;;;;;;;20.17;18.13;;;;;;;31.39;66.12;100760.25;5056347;27;66056;-37
2021/08/28 04:03:24;;;;;;;;;;;;;;;31.19;66.19;100759.63;5069712;27;69988;-38
2021/08/28 04:06:12;;;;;;;20.92;18.75;;;;;;;31.44;65.81;100765.00;5077814;27;66471;-37
2021/08/28 04:08:47;;;;;;;19.90;17.55;;;;;;;31.45;65.88;100754.97;5072783;27;70253;-38
2021/08/28 04:11:18;;;;;;;27.45;24.02;;;;;;;31.48;65.35;100757.25;5067168;28;65660;-37
2021/08/28 04:13:49;;;;;;;28.58;25.73;;;;;;;31.49;65.87;100759.72;5083869;27;70317;-36
2021/08/28 04:16:21;;;;;;;26.45;23.77;;;;;;;31.51;65.73;100759.50;5073798;27;66806;-36
2021/08/28 04:18:56;;;;;;;25.27;22.75;;;;;;;31.58;65.51;100754.81;5065685;27;69710;-38
2021/08/28 04:21:47;;;;;;;22.65;20.58;;;;;;;31.58;64.53;100743.97;5085990;27;66100;-37
2021/08/28 04:24:37;;;;;;;24.83;22.02;;;;;;;31.57;64.92;100734.19;5068053;27;69592;-36
2021/08/28 04:27:39;;;;;;;22.95;20.98;;;;;;;31.66;65.54;100732.00;5053812;27;66168;-36
2021/08/28 04:30:17;;;;;;;21.58;19.65;;;;;;;31.66;65.17;100729.28;5068607;27;69334;-37
2021/08/28 04:32:47;;;;;;;23.15;20.73;;;;;;;31.69;64.23;100729.66;5073983;27;66566;-36
2021/08/28 04:35:17;;;;;;;21.00;19.15;;;;;;;31.69;63.26;100716.09;5064937;27;70452;-37
2021/08/28 04:37:49;;;;;;;24.20;21.13;;;;;;;31.67;63.63;100720.09;5070846;27;67830;-38
2021/08/28 04:40:20;;;;;;;27.48;20.63;;;;;;;31.69;63.85;100712.56;5057381;28;70220;-36
2021/08/28 04:42:52;;;;;;;21.55;19.20;;;;;;;31.66;63.62;100704.88;5093331;27;67624;-37
2021/08/28 04:45:32;;;;;;;19.33;17.42;;;;;;;31.66;63.35;100699.47;5067067;27;69618;-37
2021/08/28 04:48:35;;;;;;;19.15;17.00;;;;;;;31.72;63.46;100706.66;5061108;27;65490;-37
2021/08/28 04:51:17;;;;;;;18.90;17.30;;;;;;;31.69;63.01;100693.56;5054748;27;70307;-37
2021/08/28 04:53:48;;;;;;;18.40;16.88;;;;;;;31.69;62.98;100682.72;5071232;27;65242;-39
2021/08/28 04:56:18;;;;;;;21.23;17.45;;;;;;;31.65;62.71;100674.22;5067108;27;70082;-38
2021/08/28 04:58:50;;;;;;;19.05;17.58;;;;;;;31.65;61.95;100676.09;5056214;27;66542;-38
2021/08/28 05:01:47;;;;;;;20.73;18.75;;;;;;;31.64;62.62;100674.44;5069571;27;70883;-38
2021/08/28 05:04:17;;;;;;;25.45;17.38;;;;;;;31.58;62.98;100665.34;5070468;27;66268;-39
2021/08/28 05:06:48;;;;;;;20.88;18.80;;;;;;;31.55;62.92;100666.63;5084939;27;69997;-39
2021/08/28 05:09:24;;;;;;;20.33;18.60;;;;;;;31.53;63.81;100674.16;5040490;27;66157;-35
2021/08/28 05:11:54;;;;;;;21.17;19.17;;;;;;;31.40;65.04;100658.09;5067944;27;69957;-38
2021/08/28 05:14:26;;;;;;;20.48;18.77;;;;;;;31.28;65.63;100641.75;5068396;27;66299;-38
2021/08/28 05:17:03;;;;;;;24.38;18.55;;;;;;;31.12;66.53;100621.53;5073004;27;70522;-37
2021/08/28 05:19:47;;;;;;;32.83;26.08;;;;;;;31.04;65.75;100616.44;5076778;27;66389;-38
2021/08/28 05:22:41;;;;;;;37.17;27.55;;;;;;;31.14;66.20;100600.44;5048273;28;69790;-38
2021/08/28 05:25:30;;;;;;;28.55;24.20;;;;;;;31.09;67.58;100592.19;5071002;27;66182;-39
2021/08/28 05:28:01;;;;;;;25.13;21.90;;;;;;;31.15;68.22;100604.81;5064423;27;69996;-38
2021/08/28 05:30:37;;;;;;;21.92;19.85;;;;;;;31.12;69.26;100602.56;5059275;28;66111;-38
2021/08/28 05:33:10;;;;;;;20.38;18.48;;;;;;;31.12;69.69;100585.47;5077185;27;69937;-38
2021/08/28 05:35:42;;;;;;;24.20;17.42;;;;;;;31.15;70.24;100582.31;5071567;27;65504;-38
2021/08/28 05:38:42;;;;;;;20.25;17.17;;;;;;;31.23;70.73;100587.44;5034894;28;70069;-37
2021/08/28 05:41:14;;;;;;;17.50;15.80;;;;;;;31.13;69.72;100582.53;5040323;27;66223;-36
2021/08/28 05:43:45;;;;;;;16.25;14.40;;;;;;;31.00;68.74;100581.88;5056639;28;71269;-37
2021/08/28 05:46:31;;;;;;;13.15;11.95;;;;;;;30.87;67.56;100574.75;5074764;27;65276;-37
2021/08/28 05:49:16;;;;;;;12.38;11.25;;;;;;;30.75;66.03;100568.44;5070151;27;69444;-36
2021/08/28 05:51:55;;;;;;;12.13;11.20;;;;;;;30.67;65.13;100567.69;5053121;27;66028;-36
2021/08/28 05:54:27;;;;;;;11.80;10.68;;;;;;;30.62;64.50;100554.00;5073251;27;69974;-37
2021/08/28 05:56:58;;;;;;;11.63;9.70;;;;;;;30.52;63.13;100547.47;5091741;27;66141;-36
2021/08/28 05:59:34;;;;;;;13.00;10.73;;;;;;;30.41;62.06;100540.91;5064377;27;68550;-35
2021/08/28 06:02:11;;;;;;;10.77;9.68;;;;;;;30.40;61.67;100539.28;5070070;27;66280;-37
2021/08/28 06:04:43;;;;;;;9.63;9.02;;;;;;;30.32;60.72;100531.44;5070024;27;69790;-37
2021/08/28 06:07:13;;;;;;;8.80;8.23;;;;;;;30.24;60.91;100519.03;5076600;27;65065;-36
2021/08/28 06:10:04;;;;;;;8.35;7.85;;;;;;;30.15;60.43;100520.38;5071897;27;70311;-37
2021/08/28 06:13:04;;;;;;;8.00;7.40;;;;;;;30.10;59.79;100539.13;5057453;27;65471;-43
2021/08/28 06:15:47;;;;;;;8.13;7.28;;;;;;;30.04;59.20;100540.84;5055844;27;70264;-36
2021/08/28 06:18:18;;;;;;;;;;;;;;;29.70;59.39;100534.06;5069835;27;65277;-36
2021/08/28 06:20:50;;;;;;;7.30;6.70;;;;;;;29.88;58.46;100531.44;5069510;27;70413;-36
2021/08/28 06:23:23;;;;;;;6.72;6.32;;;;;;;29.92;58.42;100537.22;5069640;27;66148;-36
2021/08/28 06:26:20;;;;;;;7.13;6.53;;;;;;;29.94;57.23;100537.81;5069902;27;69420;-38
2021/08/28 06:28:54;;;;;;;6.47;5.97;;;;;;;29.99;56.65;100538.00;5078812;27;66313;-36
2021/08/28 06:31:25;;;;;;;7.20;6.70;;;;;;;29.95;55.89;100520.53;5071426;27;69119;-37
2021/08/28 06:33:57;;;;;;;6.55;6.15;;;;;;;29.95;55.52;100525.94;5059913;28;65463;-38
2021/08/28 06:36:32;;;;;;;6.45;6.05;;;;;;;29.94;55.15;100513.47;5074032;27;69265;-36
2021/08/28 06:39:32;;;;;;;7.05;6.57;;;;;;;29.90;54.02;100496.88;5063829;27;65787;-36
2021/08/28 06:42:21;;;;;;;6.50;6.10;;;;;;;29.87;53.55;100494.63;5076852;27;70759;-37
2021/08/28 06:45:21;;;;;;;6.55;6.13;;;;;;;29.81;53.15;100482.81;5057793;27;66384;-36
2021/08/28 06:48:10;;;;;;;6.60;6.20;;;;;;;29.83;53.09;100485.28;5077734;27;70017;-36
2021/08/28 06:51:17;;;;;;;9.20;6.35;;;;;;;29.81;53.10;100482.81;5072229;27;66108;-39
2021/08/28 06:54:21;;;;;;;6.03;5.60;;;;;;;29.78;52.59;100472.47;5062438;27;69646;-36
2021/08/28 06:57:10;;;;;;;6.30;5.80;;;;;;;29.75;52.34;100456.66;5074883;27;66230;-37
2021/08/28 07:00:07;;;;;;;6.03;5.63;;;;;;;29.73;52.47;100439.84;5075738;27;69851;-37
2021/08/28 07:02:58;;;;;;;6.05;5.45;;;;;;;29.69;51.97;100441.34;5067746;27;65311;-37
2021/08/28 07:05:30;;;;;;;5.95;5.55;;;;;;;29.66;51.59;100444.50;5038834;28;70053;-38
2021/08/28 07:08:13;;;;;;;5.32;5.03;;;;;;;29.67;51.16;100454.28;5077676;27;65298;-38
2021/08/28 07:10:46;;;;;;;5.68;5.38;;;;;;;29.66;51.23;100452.59;5073024;27;69783;-40
2021/08/28 07:13:18;;;;;;;6.07;5.65;;;;;;;29.64;50.58;100451.97;5060627;28;65420;-37
2021/08/28 07:15:53;;;;;;;5.50;5.20;;;;;;;29.63;50.81;100442.22;5067593;27;70500;-37
2021/08/28 07:18:24;;;;;;;6.00;5.10;;;;;;;29.62;50.79;100441.38;5067605;27;66555;-36
2021/08/28 07:20:58;;;;;;;5.20;4.90;;;;;;;29.60;50.78;100438.06;5078705;27;70471;-37
2021/08/28 07:23:29;;;;;;;5.68;5.38;;;;;;;29.57;50.40;100432.28;5060014;28;66107;-37
2021/08/28 07:26:07;;;;;;;5.22;4.93;;;;;;;29.56;49.72;100422.50;5076174;27;70161;-37
2021/08/28 07:28:43;;;;;;;5.35;5.05;;;;;;;29.55;49.89;100421.69;5073798;27;66302;-37
2021/08/28 07:31:41;;;;;;;5.20;4.85;;;;;;;29.46;49.44;100398.72;5062132;28;69929;-37
2021/08/28 07:34:13;;;;;;;5.43;5.03;;;;;;;29.46;49.77;100392.47;5060651;27;66060;-39
2021/08/28 07:36:45;;;;;;;5.50;5.20;;;;;;;29.49;49.56;100402.84;5063324;27;69511;-39
2021/08/28 07:39:17;;;;;;;5.18;4.88;;;;;;;29.48;49.21;100409.31;5060356;27;66372;-36
2021/08/28 07:41:51;;;;;;;5.22;4.90;;;;;;;29.48;49.44;100401.19;5073936;27;70193;-37
2021/08/28 07:44:23;;;;;;;5.45;5.15;;;;;;;29.46;49.42;100398.72;5063856;27;65101;-36
2021/08/28 07:46:54;;;;;;;5.43;5.03;;;;;;;29.46;48.48;100400.59;5072113;27;69908;-37
2021/08/28 07:49:34;;;;;;;4.72;4.45;;;;;;;29.44;48.57;100399.97;5073521;27;65424;-37
2021/08/28 07:52:06;;;;;;;5.28;4.97;;;;;;;29.44;48.43;100410.78;5076768;27;70118;-37
2021/08/28 07:54:36;;;;;;;5.45;4.95;;;;;;;29.39;48.76;100406.88;5074464;27;66378;-37
2021/08/28 07:57:07;;;;;;;5.20;4.90;;;;;;;29.42;48.53;100418.28;5069479;27;70047;-38
2021/08/28 07:59:38;;;;;;;4.45;4.05;;;;;;;29.39;48.34;100420.41;5074779;27;66042;-38
2021/08/28 08:02:12;;;;;;;5.50;5.20;;;;;;;29.40;48.16;100426.63;5068483;27;70353;-37
2021/08/28 08:04:47;;;;;;;5.38;5.07;;;;;;;29.25;48.41;100408.03;5051321;27;66614;-37
2021/08/28 08:07:36;;;;;;;5.38;5.07;;;;;;;29.38;48.51;100429.53;5066981;27;70197;-36
2021/08/28 08:10:29;;;;;;;5.05;4.75;;;;;;;29.35;48.24;100424.56;5071403;27;66224;-37
2021/08/28 08:13:36;;;;;;;5.30;4.90;;;;;;;29.32;48.80;100416.91;5076399;27;70295;-37
2021/08/28 08:16:40;;;;;;;5.68;5.18;;;;;;;29.34;48.61;100400.50;5071518;27;66355;-38
2021/08/28 08:19:30;;;;;;;6.80;5.30;;;;;;;29.36;49.97;100382.16;5071063;27;70146;-37
2021/08/28 08:22:23;;;;;;;8.18;4.78;;;;;;;29.33;50.15;100378.03;5069086;27;66155;-36
2021/08/28 08:25:14;;;;;;;14.15;5.65;;;;;;;29.35;49.44;100373.22;5074735;27;69296;-35
2021/08/28 08:27:53;;;;;;;6.13;5.53;;;;;;;29.36;49.70;100377.59;5069422;27;66490;-36
2021/08/28 08:30:37;;;;;;;6.57;5.45;;;;;;;29.28;49.54;100375.19;5075253;27;69322;-36
2021/08/28 08:33:19;;;;;;;10.20;5.25;;;;;;;29.30;49.00;100377.66;5070573;28;65688;-36
2021/08/28 08:35:55;;;;;;;5.63;5.15;;;;;;;29.37;48.91;100394.66;5076314;27;70792;-37
2021/08/28 08:38:26;;;;;;;11.57;6.47;;;;;;;29.31;48.62;100401.75;5074034;27;66229;-37
2021/08/28 08:40:58;;;;;;;18.87;5.70;;;;;;;29.25;48.02;100416.13;5054403;27;69824;-38
2021/08/28 08:43:29;;;;;;;8.27;5.30;;;;;;;29.30;48.47;100431.69;5072188;27;66217;-38
2021/08/28 08:46:10;;;;;;;5.88;5.32;;;;;;;29.32;47.79;100441.22;5070539;27;69957;-37
2021/08/28 08:48:43;;;;;;;6.07;5.10;;;;;;;29.30;47.89;100450.59;5054662;27;65485;-36
2021/08/28 08:51:15;;;;;;;5.82;5.40;;;;;;;29.28;47.91;100464.34;5044098;27;69490;-38
2021/08/28 08:53:49;;;;;;;5.20;4.80;;;;;;;29.27;48.23;100468.06;5057752;28;66070;-37
2021/08/28 08:56:27;;;;;;;9.45;5.30;;;;;;;29.22;48.24;100476.00;5072745;27;70256;-36
2021/08/28 08:59:01;;;;;;;8.80;5.15;;;;;;;29.17;47.83;100470.44;5073612;27;66234;-38
2021/08/28 09:01:33;;;;;;;11.48;4.97;;;;;;;29.15;48.11;100472.53;5069882;27;71183;-36
2021/08/28 09:04:31;;;;;;;6.05;5.22;;;;;;;29.15;48.84;100477.94;5063361;27;66705;-37
2021/08/28 09:07:05;;;;;;;12.30;6.35;;;;;;;29.26;49.74;100485.34;5077436;27;69786;-36
2021/08/28 09:09:36;;;;;;;17.83;7.13;;;;;;;29.28;50.85;100494.06;5065615;27;66646;-35
2021/08/28 09:12:11;;;;;;;14.85;6.82;;;;;;;29.27;51.29;100478.88;5067890;27;70328;-35
2021/08/28 09:14:42;;;;;;;17.15;6.85;;;;;;;29.32;51.00;100495.25;5072260;27;66972;-36
2021/08/28 09:17:19;;;;;;;10.70;7.50;;;;;;;29.36;51.06;100498.34;5055151;27;70769;-37
2021/08/28 09:19:51;;;;;;;10.48;9.35;;;;;;;29.50;58.80;100499.06;5069843;27;65836;-36
2021/08/28 09:22:33;;;;;;;;;;;;;;;29.36;62.96;100496.50;5054384;27;69630;-37
2021/08/28 09:25:07;;;;;;;18.57;10.37;;;;;;;29.74;64.46;100503.69;5074650;27;66391;-37
2021/08/28 09:27:40;;;;;;;10.30;9.60;;;;;;;29.89;64.00;100494.38;5075247;27;70005;-38
2021/08/28 09:30:22;;;;;;;11.82;10.55;;;;;;;29.95;66.49;100493.50;5059696;27;66170;-37
2021/08/28 09:32:57;;;;;;;8.65;8.02;;;;;;;29.92;65.31;100458.78;5078246;27;69234;-39
2021/08/28 09:35:31;;;;;;;8.70;7.80;;;;;;;30.09;65.59;100470.69;5074140;27;66022;-37
2021/08/28 09:38:08;;;;;;;7.43;7.03;;;;;;;30.08;65.83;100455.50;5074091;27;69292;-38
2021/08/28 09:40:43;;;;;;;10.50;6.55;;;;;;;30.18;66.09;100461.22;5068242;27;65442;-39
2021/08/28 09:43:17;;;;;;;6.45;5.97;;;;;;;30.19;65.39;100453.91;5067869;27;69355;-37
2021/08/28 09:45:51;;;;;;;14.48;6.57;;;;;;;30.10;65.48;100453.41;5070236;27;66917;-38
2021/08/28 09:48:27;;;;;;;6.57;6.18;;;;;;;30.08;65.23;100470.91;5076624;27;69570;-38
2021/08/28 09:51:00;;;;;;;8.48;6.30;;;;;;;30.05;65.36;100462.19;5070620;27;66237;-38
2021/08/28 09:53:44;;;;;;;7.13;6.53;;;;;;;30.07;64.68;100453.84;5078988;27;69992;-38
2021/08/28 09:56:27;;;;;;;4.97;4.68;;;;;;;30.11;65.88;100456.94;5073531;27;66152;-39
2021/08/28 09:58:57;;;;;;;13.82;5.07;;;;;;;30.16;65.00;100457.91;5070080;27;70028;-39
2021/08/28 10:01:28;;;;;;;10.95;5.57;;;;;;;30.13;65.07;100444.00;5054427;28;66266;-38
2021/08/28 10:04:01;;;;;;;6.00;5.50;;;;;;;30.14;65.68;100449.19;5069437;27;69006;-38
2021/08/28 10:06:32;;;;;;;7.00;6.50;;;;;;;30.07;65.16;100443.03;5072569;27;66418;-37
2021/08/28 10:09:03;;;;;;;7.40;6.43;;;;;;;30.21;65.37;100470.75;5071460;27;70337;-39
2021/08/28 10:11:35;;;;;;;7.35;6.32;;;;;;;30.19;64.80;100473.69;5071234;27;65403;-38
2021/08/28 10:14:06;;;;;;;6.07;5.65;;;;;;;30.16;64.77;100471.44;5071390;27;69036;-37
2021/08/28 10:16:37;;;;;;;5.78;5.28;;;;;;;30.30;65.44;100490.25;5074030;27;66098;-38
2021/08/28 10:19:11;;;;;;;6.20;4.38;;;;;;;30.39;65.12;100495.13;5069926;27;70002;-38
2021/08/28 10:21:46;;;;;;;3.90;3.25;;;;;;;30.48;64.77;100507.31;5070588;27;65455;-38
2021/08/28 10:24:19;;;;;;;5.10;3.72;;;;;;;30.55;65.05;100526.19;5067604;27;69837;-38
2021/08/28 10:26:50;;;;;;;4.90;3.55;;;;;;;30.62;64.32;100529.63;5070634;27;66279;-38
2021/08/28 10:29:21;;;;;;;3.60;3.30;;;;;;;30.65;64.28;100536.47;5051933;28;69338;-39
2021/08/28 10:31:52;;;;;;;2.97;2.78;;;;;;;30.64;64.90;100524.81;5073539;27;66118;-38
2021/08/28 10:34:23;;;;;;;3.30;3.10;;;;;;;30.77;65.43;100533.84;5069697;27;70597;-39
2021/08/28 10:36:53;;;;;;;4.00;3.70;;;;;;;30.80;65.13;100536.13;5073641;27;66199;-38
2021/08/28 10:39:37;;;;;;;5.20;4.70;;;;;;;30.88;65.31;100552.88;5073180;27;70589;-38
2021/08/28 10:42:11;;;;;;;4.97;4.68;;;;;;;30.91;64.74;100551.59;5077009;27;66208;-39
2021/08/28 10:44:42;;;;;;;4.63;4.40;;;;;;;30.87;64.88;100544.97;5071440;27;69365;-39
2021/08/28 10:47:19;;;;;;;6.20;4.45;;;;;;;31.00;64.95;100558.34;5074485;27;65803;-39
2021/08/28 10:49:57;;;;;;;4.60;4.30;;;;;;;31.05;64.98;100572.03;5044332;27;69655;-40
2021/08/28 10:52:28;;;;;;;6.15;4.55;;;;;;;31.05;64.70;100573.91;5073692;27;65951;-40
2021/08/28 10:55:19;;;;;;;5.30;4.72;;;;;;;30.99;65.22;100583.78;5052690;28;69752;-39
2021/08/28 10:58:17;;;;;;;4.88;4.45;;;;;;;30.97;65.34;100585.88;5065575;27;65428;-39
2021/08/28 11:00:54;;;;;;;5.32;4.88;;;;;;;31.15;65.34;100602.13;5063066;27;68630;-38
2021/08/28 11:03:29;;;;;;;5.43;4.93;;;;;;;31.10;65.20;100593.03;5065330;27;65147;-39
2021/08/28 11:06:21;;;;;;;5.47;5.00;;;;;;;31.15;64.84;100612.94;5064487;27;69179;-38
2021/08/28 11:08:54;;;;;;;8.27;5.60;;;;;;;31.22;65.41;100618.28;5068724;27;65920;-39
2021/08/28 11:11:32;;;;;;;5.00;4.63;;;;;;;31.12;65.42;100602.56;5067181;27;70512;-39
2021/08/28 11:14:06;;;;;;;4.93;4.65;;;;;;;31.25;65.78;100617.81;5055164;27;67620;-39
2021/08/28 11:16:45;;;;;;;5.13;4.82;;;;;;;31.27;65.40;100620.31;5072845;27;70139;-39
2021/08/28 11:19:25;;;;;;;7.32;5.18;;;;;;;31.27;65.20;100620.31;5062844;27;69117;-39
2021/08/28 11:21:56;;;;;;;5.97;5.30;;;;;;;31.25;65.73;100611.56;5063949;27;70251;-39
2021/08/28 11:24:30;;;;;;;5.45;4.97;;;;;;;31.30;65.73;100619.84;5083219;27;66431;-39
2021/08/28 11:27:06;;;;;;;5.53;5.13;;;;;;;31.32;65.64;100623.97;5073428;27;69917;-38
2021/08/28 11:29:45;;;;;;;5.97;5.47;;;;;;;31.33;65.95;100635.66;5072732;27;65367;-40
2021/08/28 11:32:26;;;;;;;5.68;5.28;;;;;;;31.31;66.34;100632.31;5072028;27;69937;-39
2021/08/28 11:34:59;;;;;;;6.33;5.77;;;;;;;31.33;66.08;100624.81;5049966;27;65311;-39
2021/08/28 11:37:30;;;;;;;6.30;5.65;;;;;;;31.32;66.21;100634.00;5074331;27;69993;-39
2021/08/28 11:40:23;;;;;;;6.22;5.82;;;;;;;31.36;66.12;100644.16;5059671;27;65994;-39
2021/08/28 11:42:54;;;;;;;6.13;5.72;;;;;;;31.36;66.92;100651.47;5079087;27;70046;-40
2021/08/28 11:45:30;;;;;;;6.63;6.23;;;;;;;31.35;66.80;100653.34;5073168;27;65799;-39
2021/08/28 11:48:13;;;;;;;6.70;6.28;;;;;;;31.38;66.89;100666.44;5072368;27;69478;-39
2021/08/28 11:51:06;;;;;;;7.90;7.20;;;;;;;31.34;67.78;100675.22;5066941;27;65537;-40
2021/08/28 11:53:53;;;;;;;7.07;6.47;;;;;;;31.37;66.91;100685.66;5068643;27;70912;-39
2021/08/28 11:56:30;;;;;;;8.18;7.55;;;;;;;30.99;67.37;100624.41;5068585;27;65466;-39
2021/08/28 11:59:07;;;;;;;8.10;7.43;;;;;;;31.24;68.53;100688.50;5068262;27;69823;-40
2021/08/28 12:01:42;;;;;;;8.82;8.02;;;;;;;30.96;68.51;100662.78;5070748;27;66134;-39
2021/08/28 12:04:18;;;;;;;9.73;8.88;;;;;;;30.98;69.11;100681.50;5067654;27;70411;-38
2021/08/28 12:06:55;;;;;;;8.68;7.85;;;;;;;31.12;69.58;100721.78;5069657;27;66598;-39
2021/08/28 12:09:27;;;;;;;9.68;8.25;;;;;;;30.98;69.77;100720.28;5079180;27;70539;-38
2021/08/28 12:11:59;;;;;;;9.85;9.18;;;;;;;31.06;69.83;100733.50;5070207;27;66191;-40
2021/08/28 12:14:33;;;;;;;8.98;8.27;;;;;;;31.04;69.44;100727.50;5073682;27;70103;-38